sensor_id;sensor_type;location;lat;lon;timestamp;P1;durP1;ratioP1;P2;durP2;ratioP2
12373;SDS011;6251;51.762;8.660;2023-12-22T00:08:52;36.30;;;6.47;;
12373;SDS011;6251;51.762;8.660;2023-12-22T02:00:51;19.37;;;3.55;;
12373;SDS011;6251;51.762;8.660;2023-12-22T02:10:53;17.65;;;3.20;;
12373;SDS011;6251;51.762;8.660;2023-12-22T03:52:27;26.42;;;3.35;;
12373;SDS011;6251;51.762;8.660;2023-12-22T05:03:29;11.27;;;1.30;;
12373;SDS011;6251;51.762;8.660;2023-12-22T05:13:30;10.13;;;1.50;;
12373;SDS011;6251;51.762;8.660;2023-12-22T05:23:31;7.33;;;1.27;;
12373;SDS011;6251;51.762;8.660;2023-12-22T05:33:32;5.67;;;1.30;;
12373;SDS011;6251;51.762;8.660;2023-12-22T05:43:33;6.97;;;1.50;;
12373;SDS011;6251;51.762;8.660;2023-12-22T05:53:33;7.12;;;1.48;;
12373;SDS011;6251;51.762;8.660;2023-12-22T06:03:35;14.57;;;1.90;;
12373;SDS011;6251;51.762;8.660;2023-12-22T06:13:35;19.87;;;2.40;;
12373;SDS011;6251;51.762;8.660;2023-12-22T06:23:36;12.55;;;2.22;;
12373;SDS011;6251;51.762;8.660;2023-12-22T06:33:37;11.37;;;2.53;;
12373;SDS011;6251;51.762;8.660;2023-12-22T06:43:38;13.63;;;2.63;;
12373;SDS011;6251;51.762;8.660;2023-12-22T06:53:39;18.58;;;3.28;;
12373;SDS011;6251;51.762;8.660;2023-12-22T07:03:39;16.75;;;2.47;;
12373;SDS011;6251;51.762;8.660;2023-12-22T07:13:41;12.30;;;2.30;;
12373;SDS011;6251;51.762;8.660;2023-12-22T07:23:41;21.42;;;3.45;;
12373;SDS011;6251;51.762;8.660;2023-12-22T07:33:44;17.45;;;2.87;;
12373;SDS011;6251;51.762;8.660;2023-12-22T07:43:44;22.42;;;2.92;;
12373;SDS011;6251;51.762;8.660;2023-12-22T07:53:45;13.87;;;3.40;;
12373;SDS011;6251;51.762;8.660;2023-12-22T08:03:46;17.65;;;2.97;;
12373;SDS011;6251;51.762;8.660;2023-12-22T08:13:47;18.95;;;3.40;;
12373;SDS011;6251;51.762;8.660;2023-12-22T08:23:47;13.90;;;2.83;;
12373;SDS011;6251;51.762;8.660;2023-12-22T08:33:48;12.13;;;2.80;;
12373;SDS011;6251;51.762;8.660;2023-12-22T08:43:48;16.90;;;2.92;;
12373;SDS011;6251;51.762;8.660;2023-12-22T08:53:49;14.25;;;2.72;;
12373;SDS011;6251;51.762;8.660;2023-12-22T09:03:50;14.55;;;2.83;;
12373;SDS011;6251;51.762;8.660;2023-12-22T09:13:51;5.07;;;1.20;;
12373;SDS011;6251;51.762;8.660;2023-12-22T09:23:51;1.65;;;1.15;;
12373;SDS011;6251;51.762;8.660;2023-12-22T09:33:52;1.98;;;1.30;;
12373;SDS011;6251;51.762;8.660;2023-12-22T09:43:52;8.88;;;1.60;;
12373;SDS011;6251;51.762;8.660;2023-12-22T09:53:56;10.73;;;2.17;;
12373;SDS011;6251;51.762;8.660;2023-12-22T10:03:58;5.32;;;1.90;;
12373;SDS011;6251;51.762;8.660;2023-12-22T10:13:59;5.12;;;1.95;;
12373;SDS011;6251;51.762;8.660;2023-12-22T10:24:02;8.30;;;1.92;;
12373;SDS011;6251;51.762;8.660;2023-12-22T10:34:03;11.02;;;2.10;;
12373;SDS011;6251;51.762;8.660;2023-12-22T10:44:04;11.95;;;1.83;;
12373;SDS011;6251;51.762;8.660;2023-12-22T10:54:04;9.27;;;1.60;;
12373;SDS011;6251;51.762;8.660;2023-12-22T11:04:09;6.53;;;1.60;;
12373;SDS011;6251;51.762;8.660;2023-12-22T11:14:17;5.07;;;1.65;;
12373;SDS011;6251;51.762;8.660;2023-12-22T11:24:19;7.72;;;1.77;;
12373;SDS011;6251;51.762;8.660;2023-12-22T11:34:21;10.27;;;2.00;;
12373;SDS011;6251;51.762;8.660;2023-12-22T11:44:23;6.87;;;2.40;;
12373;SDS011;6251;51.762;8.660;2023-12-22T11:54:43;3.55;;;1.87;;
12373;SDS011;6251;51.762;8.660;2023-12-22T12:04:47;4.90;;;1.60;;
12373;SDS011;6251;51.762;8.660;2023-12-22T12:14:48;4.20;;;1.23;;
12373;SDS011;6251;51.762;8.660;2023-12-22T12:24:54;2.97;;;1.33;;
12373;SDS011;6251;51.762;8.660;2023-12-22T12:34:57;3.17;;;1.20;;
12373;SDS011;6251;51.762;8.660;2023-12-22T12:44:59;2.65;;;1.08;;
12373;SDS011;6251;51.762;8.660;2023-12-22T12:54:59;3.20;;;1.23;;
12373;SDS011;6251;51.762;8.660;2023-12-22T13:05:00;3.28;;;1.08;;
12373;SDS011;6251;51.762;8.660;2023-12-22T13:15:04;1.40;;;0.70;;
12373;SDS011;6251;51.762;8.660;2023-12-22T13:25:06;3.08;;;1.00;;
12373;SDS011;6251;51.762;8.660;2023-12-22T13:35:06;4.43;;;1.33;;
12373;SDS011;6251;51.762;8.660;2023-12-22T13:45:11;1.73;;;0.90;;
12373;SDS011;6251;51.762;8.660;2023-12-22T13:55:12;2.67;;;1.50;;
12373;SDS011;6251;51.762;8.660;2023-12-22T14:05:15;1.58;;;1.10;;
12373;SDS011;6251;51.762;8.660;2023-12-22T14:15:17;2.08;;;1.30;;
12373;SDS011;6251;51.762;8.660;2023-12-22T14:25:17;1.40;;;1.27;;
12373;SDS011;6251;51.762;8.660;2023-12-22T14:35:18;3.45;;;1.77;;
12373;SDS011;6251;51.762;8.660;2023-12-22T14:45:22;2.50;;;1.95;;
12373;SDS011;6251;51.762;8.660;2023-12-22T14:55:23;3.17;;;2.10;;
12373;SDS011;6251;51.762;8.660;2023-12-22T15:05:23;3.80;;;1.90;;
12373;SDS011;6251;51.762;8.660;2023-12-22T15:15:29;2.33;;;1.60;;
12373;SDS011;6251;51.762;8.660;2023-12-22T15:25:29;2.78;;;1.20;;
12373;SDS011;6251;51.762;8.660;2023-12-22T15:35:30;3.65;;;1.30;;
12373;SDS011;6251;51.762;8.660;2023-12-22T15:45:30;1.27;;;1.17;;
12373;SDS011;6251;51.762;8.660;2023-12-22T15:55:31;1.42;;;1.20;;
12373;SDS011;6251;51.762;8.660;2023-12-22T16:05:32;2.53;;;1.45;;
12373;SDS011;6251;51.762;8.660;2023-12-22T16:15:33;5.40;;;2.00;;
12373;SDS011;6251;51.762;8.660;2023-12-22T16:25:34;1.80;;;1.70;;
12373;SDS011;6251;51.762;8.660;2023-12-22T16:35:35;2.95;;;1.92;;
12373;SDS011;6251;51.762;8.660;2023-12-22T16:45:35;2.90;;;2.25;;
12373;SDS011;6251;51.762;8.660;2023-12-22T16:55:36;2.35;;;1.80;;
12373;SDS011;6251;51.762;8.660;2023-12-22T17:05:37;3.00;;;1.65;;
12373;SDS011;6251;51.762;8.660;2023-12-22T17:15:41;1.73;;;1.62;;
12373;SDS011;6251;51.762;8.660;2023-12-22T17:25:41;1.02;;;0.90;;
12373;SDS011;6251;51.762;8.660;2023-12-22T17:35:42;1.55;;;1.45;;
12373;SDS011;6251;51.762;8.660;2023-12-22T17:45:44;1.12;;;1.10;;
12373;SDS011;6251;51.762;8.660;2023-12-22T17:55:44;0.90;;;0.90;;
12373;SDS011;6251;51.762;8.660;2023-12-22T18:05:45;1.80;;;1.67;;
12373;SDS011;6251;51.762;8.660;2023-12-22T18:15:46;1.50;;;1.40;;
12373;SDS011;6251;51.762;8.660;2023-12-22T18:25:46;2.17;;;0.90;;
12373;SDS011;6251;51.762;8.660;2023-12-22T18:35:51;2.15;;;1.08;;
12373;SDS011;6251;51.762;8.660;2023-12-22T18:45:52;1.92;;;1.77;;
12373;SDS011;6251;51.762;8.660;2023-12-22T18:55:53;2.87;;;1.60;;
12373;SDS011;6251;51.762;8.660;2023-12-22T19:05:54;5.45;;;1.80;;
12373;SDS011;6251;51.762;8.660;2023-12-22T19:15:55;2.55;;;1.77;;
12373;SDS011;6251;51.762;8.660;2023-12-22T19:25:55;3.37;;;0.98;;
12373;SDS011;6251;51.762;8.660;2023-12-22T19:35:56;6.87;;;1.67;;
12373;SDS011;6251;51.762;8.660;2023-12-22T19:45:56;5.90;;;1.87;;
12373;SDS011;6251;51.762;8.660;2023-12-22T19:55:57;7.47;;;1.42;;
12373;SDS011;6251;51.762;8.660;2023-12-22T20:05:58;5.87;;;1.37;;
12373;SDS011;6251;51.762;8.660;2023-12-22T20:16:00;2.65;;;1.20;;
12373;SDS011;6251;51.762;8.660;2023-12-22T20:26:01;3.35;;;1.23;;
12373;SDS011;6251;51.762;8.660;2023-12-22T20:36:02;5.90;;;1.63;;
12373;SDS011;6251;51.762;8.660;2023-12-22T20:46:03;4.50;;;1.33;;
12373;SDS011;6251;51.762;8.660;2023-12-22T20:56:17;4.57;;;1.10;;
12373;SDS011;6251;51.762;8.660;2023-12-22T21:06:23;2.25;;;1.27;;
12373;SDS011;6251;51.762;8.660;2023-12-22T21:16:23;5.20;;;1.65;;
12373;SDS011;6251;51.762;8.660;2023-12-22T21:26:24;4.35;;;1.05;;
12373;SDS011;6251;51.762;8.660;2023-12-22T21:36:25;8.13;;;1.87;;
12373;SDS011;6251;51.762;8.660;2023-12-22T21:46:25;4.75;;;1.08;;
12373;SDS011;6251;51.762;8.660;2023-12-22T21:56:26;3.03;;;1.42;;
